sensor_id;sensor_type;location;lat;lon;timestamp;temperature;humidity
2202;DHT22;1107;48.654;9.250;2022-09-09T00:00:19;15.30;99.90
2202;DHT22;1107;48.654;9.250;2022-09-09T00:02:53;15.30;1.00
2202;DHT22;1107;48.654;9.250;2022-09-09T00:05:28;15.30;99.90
2202;DHT22;1107;48.654;9.250;2022-09-09T00:07:59;15.30;99.90
2202;DHT22;1107;48.654;9.250;2022-09-09T00:10:30;15.30;99.90
2202;DHT22;1107;48.654;9.250;2022-09-09T00:13:05;15.30;99.90
2202;DHT22;1107;48.654;9.250;2022-09-09T00:15:38;15.40;99.90
2202;DHT22;1107;48.654;9.250;2022-09-09T00:18:15;15.40;99.90
2202;DHT22;1107;48.654;9.250;2022-09-09T00:20:49;15.50;99.90
2202;DHT22;1107;48.654;9.250;2022-09-09T00:23:25;15.50;99.90
2202;DHT22;1107;48.654;9.250;2022-09-09T00:26:00;15.50;99.90
2202;DHT22;1107;48.654;9.250;2022-09-09T00:28:29;15.50;99.90
2202;DHT22;1107;48.654;9.250;2022-09-09T00:31:01;15.50;99.90
2202;DHT22;1107;48.654;9.250;2022-09-09T00:33:31;15.60;99.90
2202;DHT22;1107;48.654;9.250;2022-09-09T00:36:00;15.60;99.90
2202;DHT22;1107;48.654;9.250;2022-09-09T00:38:32;15.60;99.90
2202;DHT22;1107;48.654;9.250;2022-09-09T00:41:05;15.60;96.70
2202;DHT22;1107;48.654;9.250;2022-09-09T00:43:36;15.70;61.30
2202;DHT22;1107;48.654;9.250;2022-09-09T00:46:20;15.80;49.50
2202;DHT22;1107;48.654;9.250;2022-09-09T00:48:57;15.80;92.30
2202;DHT22;1107;48.654;9.250;2022-09-09T00:51:38;15.80;99.90
2202;DHT22;1107;48.654;9.250;2022-09-09T00:54:19;15.70;99.90
2202;DHT22;1107;48.654;9.250;2022-09-09T00:57:01;15.70;1.00
2202;DHT22;1107;48.654;9.250;2022-09-09T00:59:35;15.70;99.90
2202;DHT22;1107;48.654;9.250;2022-09-09T01:02:18;15.70;99.90
2202;DHT22;1107;48.654;9.250;2022-09-09T01:04:48;15.70;99.90
2202;DHT22;1107;48.654;9.250;2022-09-09T01:07:18;15.70;99.90
2202;DHT22;1107;48.654;9.250;2022-09-09T01:09:52;15.60;1.00
2202;DHT22;1107;48.654;9.250;2022-09-09T01:12:26;15.60;99.90
2202;DHT22;1107;48.654;9.250;2022-09-09T01:15:01;15.70;99.90
2202;DHT22;1107;48.654;9.250;2022-09-09T01:17:32;15.70;99.90
2202;DHT22;1107;48.654;9.250;2022-09-09T01:20:10;15.60;99.90
2202;DHT22;1107;48.654;9.250;2022-09-09T01:22:47;15.70;99.90
2202;DHT22;1107;48.654;9.250;2022-09-09T01:25:29;15.70;63.90
2202;DHT22;1107;48.654;9.250;2022-09-09T01:28:01;15.70;78.10
2202;DHT22;1107;48.654;9.250;2022-09-09T01:30:30;15.70;99.90
2202;DHT22;1107;48.654;9.250;2022-09-09T01:32:58;15.70;99.90
2202;DHT22;1107;48.654;9.250;2022-09-09T01:35:37;15.70;99.90
2202;DHT22;1107;48.654;9.250;2022-09-09T01:38:06;15.60;99.90
2202;DHT22;1107;48.654;9.250;2022-09-09T01:40:33;15.60;1.00
2202;DHT22;1107;48.654;9.250;2022-09-09T01:43:02;15.50;1.00
2202;DHT22;1107;48.654;9.250;2022-09-09T01:45:30;15.40;1.00
2202;DHT22;1107;48.654;9.250;2022-09-09T01:47:58;15.30;1.00
2202;DHT22;1107;48.654;9.250;2022-09-09T01:50:26;15.20;31.80
2202;DHT22;1107;48.654;9.250;2022-09-09T01:52:56;15.20;1.00
2202;DHT22;1107;48.654;9.250;2022-09-09T01:55:29;15.20;99.90
2202;DHT22;1107;48.654;9.250;2022-09-09T01:58:14;15.20;99.90
2202;DHT22;1107;48.654;9.250;2022-09-09T02:00:48;15.10;93.40
2202;DHT22;1107;48.654;9.250;2022-09-09T02:03:23;15.10;1.00
2202;DHT22;1107;48.654;9.250;2022-09-09T02:05:58;15.10;1.00
2202;DHT22;1107;48.654;9.250;2022-09-09T02:08:32;15.10;1.00
2202;DHT22;1107;48.654;9.250;2022-09-09T02:11:03;15.10;1.00
2202;DHT22;1107;48.654;9.250;2022-09-09T02:13:35;15.10;1.00
2202;DHT22;1107;48.654;9.250;2022-09-09T02:16:07;15.20;1.00
2202;DHT22;1107;48.654;9.250;2022-09-09T02:18:38;15.20;1.00
2202;DHT22;1107;48.654;9.250;2022-09-09T02:21:08;15.20;1.00
2202;DHT22;1107;48.654;9.250;2022-09-09T02:23:37;15.20;1.00
2202;DHT22;1107;48.654;9.250;2022-09-09T02:26:06;15.20;59.80
2202;DHT22;1107;48.654;9.250;2022-09-09T02:28:36;15.10;1.00
2202;DHT22;1107;48.654;9.250;2022-09-09T02:31:05;15.00;99.90
2202;DHT22;1107;48.654;9.250;2022-09-09T02:33:35;14.90;1.00
2202;DHT22;1107;48.654;9.250;2022-09-09T02:36:05;14.90;1.00
2202;DHT22;1107;48.654;9.250;2022-09-09T02:38:38;14.90;1.00
2202;DHT22;1107;48.654;9.250;2022-09-09T02:41:06;14.90;99.90
2202;DHT22;1107;48.654;9.250;2022-09-09T02:43:35;14.90;1.00
2202;DHT22;1107;48.654;9.250;2022-09-09T02:46:08;15.00;1.00
2202;DHT22;1107;48.654;9.250;2022-09-09T02:48:44;15.00;1.00
2202;DHT22;1107;48.654;9.250;2022-09-09T02:51:21;15.00;1.00
2202;DHT22;1107;48.654;9.250;2022-09-09T02:53:56;15.00;1.00
2202;DHT22;1107;48.654;9.250;2022-09-09T02:56:27;14.90;99.90
2202;DHT22;1107;48.654;9.250;2022-09-09T02:58:56;14.90;1.00
2202;DHT22;1107;48.654;9.250;2022-09-09T03:01:23;14.90;1.00
2202;DHT22;1107;48.654;9.250;2022-09-09T03:03:50;14.80;1.00
2202;DHT22;1107;48.654;9.250;2022-09-09T03:06:17;14.60;1.00
2202;DHT22;1107;48.654;9.250;2022-09-09T03:08:44;14.40;1.00
2202;DHT22;1107;48.654;9.250;2022-09-09T03:11:12;14.20;1.00
2202;DHT22;1107;48.654;9.250;2022-09-09T03:13:39;14.00;1.00
2202;DHT22;1107;48.654;9.250;2022-09-09T03:16:08;13.90;1.00
2202;DHT22;1107;48.654;9.250;2022-09-09T03:18:35;13.80;99.90
2202;DHT22;1107;48.654;9.250;2022-09-09T03:21:02;13.80;1.00
2202;DHT22;1107;48.654;9.250;2022-09-09T03:23:29;13.70;1.00
2202;DHT22;1107;48.654;9.250;2022-09-09T03:25:56;13.60;99.90
2202;DHT22;1107;48.654;9.250;2022-09-09T03:28:24;13.60;1.00
2202;DHT22;1107;48.654;9.250;2022-09-09T03:30:59;13.60;1.00
2202;DHT22;1107;48.654;9.250;2022-09-09T03:33:28;13.60;99.90
2202;DHT22;1107;48.654;9.250;2022-09-09T03:35:55;13.50;1.00
2202;DHT22;1107;48.654;9.250;2022-09-09T03:38:23;13.50;1.00
2202;DHT22;1107;48.654;9.250;2022-09-09T03:40:50;13.50;1.00
2202;DHT22;1107;48.654;9.250;2022-09-09T03:43:21;13.50;1.00
2202;DHT22;1107;48.654;9.250;2022-09-09T03:45:48;13.50;1.00
2202;DHT22;1107;48.654;9.250;2022-09-09T03:48:16;13.50;99.90
2202;DHT22;1107;48.654;9.250;2022-09-09T03:50:49;13.40;1.00
2202;DHT22;1107;48.654;9.250;2022-09-09T03:53:18;13.30;1.00
2202;DHT22;1107;48.654;9.250;2022-09-09T03:55:45;13.20;20.10
2202;DHT22;1107;48.654;9.250;2022-09-09T03:58:13;13.20;99.90
2202;DHT22;1107;48.654;9.250;2022-09-09T04:00:40;13.20;99.90
2202;DHT22;1107;48.654;9.250;2022-09-09T04:03:10;13.20;99.90
2202;DHT22;1107;48.654;9.250;2022-09-09T04:05:40;13.20;99.90
2202;DHT22;1107;48.654;9.250;2022-09-09T04:08:09;13.20;99.90
2202;DHT22;1107;48.654;9.250;2022-09-09T04:10:37;13.20;99.90
2202;DHT22;1107;48.654;9.250;2022-09-09T04:13:04;13.30;99.90
2202;DHT22;1107;48.654;9.250;2022-09-09T04:15:31;13.30;57.50
2202;DHT22;1107;48.654;9.250;2022-09-09T04:17:58;13.20;99.10
2202;DHT22;1107;48.654;9.250;2022-09-09T04:20:26;13.30;89.20
2202;DHT22;1107;48.654;9.250;2022-09-09T04:22:53;13.30;99.90
2202;DHT22;1107;48.654;9.250;2022-09-09T04:25:21;13.30;71.10
2202;DHT22;1107;48.654;9.250;2022-09-09T04:27:53;13.30;99.90
2202;DHT22;1107;48.654;9.250;2022-09-09T04:30:20;13.30;99.90
2202;DHT22;1107;48.654;9.250;2022-09-09T04:32:48;13.30;99.90
2202;DHT22;1107;48.654;9.250;2022-09-09T04:35:15;13.30;99.90
2202;DHT22;1107;48.654;9.250;2022-09-09T04:37:42;13.30;99.90
2202;DHT22;1107;48.654;9.250;2022-09-09T04:40:10;13.30;99.90
2202;DHT22;1107;48.654;9.250;2022-09-09T04:42:39;13.40;99.90
2202;DHT22;1107;48.654;9.250;2022-09-09T04:45:09;13.40;1.00
2202;DHT22;1107;48.654;9.250;2022-09-09T04:47:39;13.50;1.00
2202;DHT22;1107;48.654;9.250;2022-09-09T04:50:07;13.60;1.00
2202;DHT22;1107;48.654;9.250;2022-09-09T04:52:34;13.60;1.00
2202;DHT22;1107;48.654;9.250;2022-09-09T04:55:02;13.70;1.00
2202;DHT22;1107;48.654;9.250;2022-09-09T04:57:29;13.70;1.00
2202;DHT22;1107;48.654;9.250;2022-09-09T05:00:00;13.80;1.00
2202;DHT22;1107;48.654;9.250;2022-09-09T05:02:28;13.80;1.00
2202;DHT22;1107;48.654;9.250;2022-09-09T05:04:55;13.80;1.00
2202;DHT22;1107;48.654;9.250;2022-09-09T05:07:22;13.80;1.00
2202;DHT22;1107;48.654;9.250;2022-09-09T05:09:50;13.80;1.00
2202;DHT22;1107;48.654;9.250;2022-09-09T05:12:17;13.80;1.00
2202;DHT22;1107;48.654;9.250;2022-09-09T05:14:44;13.80;26.20
2202;DHT22;1107;48.654;9.250;2022-09-09T05:17:13;13.80;1.00
2202;DHT22;1107;48.654;9.250;2022-09-09T05:19:40;13.80;99.90
2202;DHT22;1107;48.654;9.250;2022-09-09T05:22:08;13.80;99.90
2202;DHT22;1107;48.654;9.250;2022-09-09T05:24:36;13.80;99.90
2202;DHT22;1107;48.654;9.250;2022-09-09T05:27:04;13.90;99.90
2202;DHT22;1107;48.654;9.250;2022-09-09T05:29:31;14.00;99.90
2202;DHT22;1107;48.654;9.250;2022-09-09T05:31:59;14.10;99.90
2202;DHT22;1107;48.654;9.250;2022-09-09T05:34:28;14.20;1.00
2202;DHT22;1107;48.654;9.250;2022-09-09T05:36:55;14.40;1.00
2202;DHT22;1107;48.654;9.250;2022-09-09T05:39:22;14.50;1.00
2202;DHT22;1107;48.654;9.250;2022-09-09T05:41:49;14.80;99.90
2202;DHT22;1107;48.654;9.250;2022-09-09T05:44:16;15.00;1.00
2202;DHT22;1107;48.654;9.250;2022-09-09T05:46:44;15.00;1.00
2202;DHT22;1107;48.654;9.250;2022-09-09T05:49:11;14.90;1.00
2202;DHT22;1107;48.654;9.250;2022-09-09T05:51:42;14.80;1.00
2202;DHT22;1107;48.654;9.250;2022-09-09T05:54:09;14.80;99.90
2202;DHT22;1107;48.654;9.250;2022-09-09T05:56:39;14.80;99.90
2202;DHT22;1107;48.654;9.250;2022-09-09T05:59:06;14.80;99.90
2202;DHT22;1107;48.654;9.250;2022-09-09T06:01:34;14.80;99.90
2202;DHT22;1107;48.654;9.250;2022-09-09T06:04:02;14.90;1.00
2202;DHT22;1107;48.654;9.250;2022-09-09T06:06:31;14.90;1.00
2202;DHT22;1107;48.654;9.250;2022-09-09T06:09:04;14.90;1.00
2202;DHT22;1107;48.654;9.250;2022-09-09T06:11:36;15.10;99.90
2202;DHT22;1107;48.654;9.250;2022-09-09T06:14:04;15.10;99.90
2202;DHT22;1107;48.654;9.250;2022-09-09T06:16:31;15.20;1.00
2202;DHT22;1107;48.654;9.250;2022-09-09T06:18:59;15.30;1.00
2202;DHT22;1107;48.654;9.250;2022-09-09T06:21:28;15.30;99.90
2202;DHT22;1107;48.654;9.250;2022-09-09T06:23:56;15.40;1.00
2202;DHT22;1107;48.654;9.250;2022-09-09T06:26:26;15.40;1.00
2202;DHT22;1107;48.654;9.250;2022-09-09T06:28:54;15.50;99.90
2202;DHT22;1107;48.654;9.250;2022-09-09T06:31:24;15.50;1.00
2202;DHT22;1107;48.654;9.250;2022-09-09T06:33:53;15.50;1.00
2202;DHT22;1107;48.654;9.250;2022-09-09T06:36:22;15.60;1.00
2202;DHT22;1107;48.654;9.250;2022-09-09T06:38:50;15.60;1.00
2202;DHT22;1107;48.654;9.250;2022-09-09T06:41:18;15.70;1.00
2202;DHT22;1107;48.654;9.250;2022-09-09T06:43:47;15.60;1.00
2202;DHT22;1107;48.654;9.250;2022-09-09T06:46:15;15.70;99.90
2202;DHT22;1107;48.654;9.250;2022-09-09T06:48:43;15.70;4.60
2202;DHT22;1107;48.654;9.250;2022-09-09T06:51:12;15.90;1.00
2202;DHT22;1107;48.654;9.250;2022-09-09T06:53:41;16.00;1.00
2202;DHT22;1107;48.654;9.250;2022-09-09T06:56:21;16.10;1.00
2202;DHT22;1107;48.654;9.250;2022-09-09T06:58:51;16.40;1.00
2202;DHT22;1107;48.654;9.250;2022-09-09T07:01:20;16.60;1.00
2202;DHT22;1107;48.654;9.250;2022-09-09T07:03:49;16.70;1.00
2202;DHT22;1107;48.654;9.250;2022-09-09T07:06:18;16.90;1.00
2202;DHT22;1107;48.654;9.250;2022-09-09T07:08:49;17.30;99.90
2202;DHT22;1107;48.654;9.250;2022-09-09T07:11:18;17.40;1.00
2202;DHT22;1107;48.654;9.250;2022-09-09T07:13:45;17.60;1.00
2202;DHT22;1107;48.654;9.250;2022-09-09T07:16:14;17.90;1.00
2202;DHT22;1107;48.654;9.250;2022-09-09T07:18:42;18.30;99.90
2202;DHT22;1107;48.654;9.250;2022-09-09T07:21:10;18.50;99.90
2202;DHT22;1107;48.654;9.250;2022-09-09T07:23:39;18.50;99.90
2202;DHT22;1107;48.654;9.250;2022-09-09T07:26:08;19.10;49.00
2202;DHT22;1107;48.654;9.250;2022-09-09T07:28:36;19.30;1.00
2202;DHT22;1107;48.654;9.250;2022-09-09T07:31:04;19.20;1.00
2202;DHT22;1107;48.654;9.250;2022-09-09T07:33:34;19.20;1.00
2202;DHT22;1107;48.654;9.250;2022-09-09T07:36:06;19.20;1.00
2202;DHT22;1107;48.654;9.250;2022-09-09T07:38:38;19.10;1.00
2202;DHT22;1107;48.654;9.250;2022-09-09T07:41:07;18.80;1.00
2202;DHT22;1107;48.654;9.250;2022-09-09T07:43:37;18.60;18.10
2202;DHT22;1107;48.654;9.250;2022-09-09T07:46:05;18.60;99.90
2202;DHT22;1107;48.654;9.250;2022-09-09T07:48:34;18.40;99.90
2202;DHT22;1107;48.654;9.250;2022-09-09T07:51:09;18.50;22.00
2202;DHT22;1107;48.654;9.250;2022-09-09T07:53:37;19.20;1.00
2202;DHT22;1107;48.654;9.250;2022-09-09T07:56:07;20.30;1.00
2202;DHT22;1107;48.654;9.250;2022-09-09T07:58:35;20.60;1.00
2202;DHT22;1107;48.654;9.250;2022-09-09T08:01:07;21.10;1.00
2202;DHT22;1107;48.654;9.250;2022-09-09T08:03:36;21.00;1.00
2202;DHT22;1107;48.654;9.250;2022-09-09T08:06:06;20.90;1.00
2202;DHT22;1107;48.654;9.250;2022-09-09T08:08:33;21.60;99.90
2202;DHT22;1107;48.654;9.250;2022-09-09T08:11:05;22.50;99.90
2202;DHT22;1107;48.654;9.250;2022-09-09T08:13:33;22.70;99.90
2202;DHT22;1107;48.654;9.250;2022-09-09T08:16:06;21.80;99.90
2202;DHT22;1107;48.654;9.250;2022-09-09T08:18:33;22.10;99.90
2202;DHT22;1107;48.654;9.250;2022-09-09T08:21:07;21.30;99.90
2202;DHT22;1107;48.654;9.250;2022-09-09T08:23:38;20.70;99.90
2202;DHT22;1107;48.654;9.250;2022-09-09T08:26:10;20.20;99.90
2202;DHT22;1107;48.654;9.250;2022-09-09T08:28:37;19.60;1.00
2202;DHT22;1107;48.654;9.250;2022-09-09T08:31:10;19.60;1.00
2202;DHT22;1107;48.654;9.250;2022-09-09T08:33:37;20.50;99.90
2202;DHT22;1107;48.654;9.250;2022-09-09T08:36:08;21.00;99.90
2202;DHT22;1107;48.654;9.250;2022-09-09T08:38:35;22.00;99.90
2202;DHT22;1107;48.654;9.250;2022-09-09T08:44:36;23.70;99.90
2202;DHT22;1107;48.654;9.250;2022-09-09T08:47:08;23.30;99.90
2202;DHT22;1107;48.654;9.250;2022-09-09T08:50:01;22.60;99.90
2202;DHT22;1107;48.654;9.250;2022-09-09T08:52:37;22.30;99.90
2202;DHT22;1107;48.654;9.250;2022-09-09T08:55:18;22.90;99.90
2202;DHT22;1107;48.654;9.250;2022-09-09T08:57:48;22.40;99.90
2202;DHT22;1107;48.654;9.250;2022-09-09T09:00:15;22.40;99.90
2202;DHT22;1107;48.654;9.250;2022-09-09T09:02:48;22.20;99.90
2202;DHT22;1107;48.654;9.250;2022-09-09T09:05:25;22.30;99.90
2202;DHT22;1107;48.654;9.250;2022-09-09T09:08:05;22.00;99.90
2202;DHT22;1107;48.654;9.250;2022-09-09T09:10:44;21.70;99.90
2202;DHT22;1107;48.654;9.250;2022-09-09T09:13:15;21.40;99.90
2202;DHT22;1107;48.654;9.250;2022-09-09T09:15:46;21.00;99.90
2202;DHT22;1107;48.654;9.250;2022-09-09T09:18:17;21.00;99.90
2202;DHT22;1107;48.654;9.250;2022-09-09T09:20:50;22.10;99.90
2202;DHT22;1107;48.654;9.250;2022-09-09T09:23:24;22.80;99.90
2202;DHT22;1107;48.654;9.250;2022-09-09T09:25:55;23.60;99.90
2202;DHT22;1107;48.654;9.250;2022-09-09T09:28:26;24.40;99.90
2202;DHT22;1107;48.654;9.250;2022-09-09T09:30:58;24.30;99.90
2202;DHT22;1107;48.654;9.250;2022-09-09T09:33:29;25.10;99.90
2202;DHT22;1107;48.654;9.250;2022-09-09T09:35:58;24.90;99.90
2202;DHT22;1107;48.654;9.250;2022-09-09T09:38:28;25.30;99.90
2202;DHT22;1107;48.654;9.250;2022-09-09T09:40:57;25.80;99.90
2202;DHT22;1107;48.654;9.250;2022-09-09T09:43:26;27.30;99.90
2202;DHT22;1107;48.654;9.250;2022-09-09T09:45:54;28.60;75.80
2202;DHT22;1107;48.654;9.250;2022-09-09T09:48:23;29.80;57.30
2202;DHT22;1107;48.654;9.250;2022-09-09T09:50:52;30.80;51.10
2202;DHT22;1107;48.654;9.250;2022-09-09T09:53:22;31.60;46.50
2202;DHT22;1107;48.654;9.250;2022-09-09T09:55:56;32.30;42.60
2202;DHT22;1107;48.654;9.250;2022-09-09T09:58:25;31.60;32.60
2202;DHT22;1107;48.654;9.250;2022-09-09T10:00:54;30.10;21.60
2202;DHT22;1107;48.654;9.250;2022-09-09T10:03:26;28.50;12.50
2202;DHT22;1107;48.654;9.250;2022-09-09T10:05:55;29.20;12.90
2202;DHT22;1107;48.654;9.250;2022-09-09T10:08:25;28.30;12.60
2202;DHT22;1107;48.654;9.250;2022-09-09T10:11:25;27.20;7.70
2202;DHT22;1107;48.654;9.250;2022-09-09T10:14:03;25.90;5.10
2202;DHT22;1107;48.654;9.250;2022-09-09T10:16:40;25.50;11.50
2202;DHT22;1107;48.654;9.250;2022-09-09T10:19:15;24.40;16.80
2202;DHT22;1107;48.654;9.250;2022-09-09T10:21:56;25.40;27.80
2202;DHT22;1107;48.654;9.250;2022-09-09T10:27:58;24.00;31.40
2202;DHT22;1107;48.654;9.250;2022-09-09T10:30:32;23.00;41.30
2202;DHT22;1107;48.654;9.250;2022-09-09T10:33:08;24.20;46.10
2202;DHT22;1107;48.654;9.250;2022-09-09T10:35:41;25.30;47.90
2202;DHT22;1107;48.654;9.250;2022-09-09T10:38:15;24.90;43.20
2202;DHT22;1107;48.654;9.250;2022-09-09T10:43:51;23.80;39.40
2202;DHT22;1107;48.654;9.250;2022-09-09T10:46:26;23.30;28.50
2202;DHT22;1107;48.654;9.250;2022-09-09T10:49:09;22.70;26.10
2202;DHT22;1107;48.654;9.250;2022-09-09T10:51:44;23.10;34.30
2202;DHT22;1107;48.654;9.250;2022-09-09T10:54:22;24.10;44.30
2202;DHT22;1107;48.654;9.250;2022-09-09T10:56:56;24.00;37.60
2202;DHT22;1107;48.654;9.250;2022-09-09T10:59:27;23.00;44.50
2202;DHT22;1107;48.654;9.250;2022-09-09T11:01:59;23.20;28.80
2202;DHT22;1107;48.654;9.250;2022-09-09T11:04:32;25.00;38.90
2202;DHT22;1107;48.654;9.250;2022-09-09T11:07:05;24.70;34.60
2202;DHT22;1107;48.654;9.250;2022-09-09T11:09:39;25.60;37.40
2202;DHT22;1107;48.654;9.250;2022-09-09T11:12:10;25.90;31.50
2202;DHT22;1107;48.654;9.250;2022-09-09T11:14:43;24.20;21.60
2202;DHT22;1107;48.654;9.250;2022-09-09T11:17:13;23.30;23.70
2202;DHT22;1107;48.654;9.250;2022-09-09T11:19:42;22.60;26.20
2202;DHT22;1107;48.654;9.250;2022-09-09T11:22:18;21.30;35.70
2202;DHT22;1107;48.654;9.250;2022-09-09T11:24:50;20.70;99.90
2202;DHT22;1107;48.654;9.250;2022-09-09T11:27:21;20.20;99.90
2202;DHT22;1107;48.654;9.250;2022-09-09T11:30:17;20.20;99.90
2202;DHT22;1107;48.654;9.250;2022-09-09T11:35:48;19.70;1.00
2202;DHT22;1107;48.654;9.250;2022-09-09T11:38:25;19.40;1.00
2202;DHT22;1107;48.654;9.250;2022-09-09T11:40:57;19.20;1.00
2202;DHT22;1107;48.654;9.250;2022-09-09T11:43:32;19.10;1.00
2202;DHT22;1107;48.654;9.250;2022-09-09T11:46:02;19.50;1.00
2202;DHT22;1107;48.654;9.250;2022-09-09T11:48:33;21.10;1.00
2202;DHT22;1107;48.654;9.250;2022-09-09T11:51:04;22.00;99.90
2202;DHT22;1107;48.654;9.250;2022-09-09T11:53:33;22.10;99.90
2202;DHT22;1107;48.654;9.250;2022-09-09T11:56:06;22.20;99.90
2202;DHT22;1107;48.654;9.250;2022-09-09T11:58:53;22.20;99.90
2202;DHT22;1107;48.654;9.250;2022-09-09T12:04:32;21.90;99.90
2202;DHT22;1107;48.654;9.250;2022-09-09T12:07:02;21.80;99.90
2202;DHT22;1107;48.654;9.250;2022-09-09T12:09:44;23.20;99.90
2202;DHT22;1107;48.654;9.250;2022-09-09T12:12:28;23.90;99.90
2202;DHT22;1107;48.654;9.250;2022-09-09T12:15:03;24.10;99.90
2202;DHT22;1107;48.654;9.250;2022-09-09T12:17:41;24.20;99.90
2202;DHT22;1107;48.654;9.250;2022-09-09T12:20:14;24.80;99.90
2202;DHT22;1107;48.654;9.250;2022-09-09T12:23:10;25.50;99.60
2202;DHT22;1107;48.654;9.250;2022-09-09T12:25:51;25.30;73.50
2202;DHT22;1107;48.654;9.250;2022-09-09T12:28:22;25.60;60.00
2202;DHT22;1107;48.654;9.250;2022-09-09T12:30:55;25.60;58.30
2202;DHT22;1107;48.654;9.250;2022-09-09T12:33:34;25.80;48.90
2202;DHT22;1107;48.654;9.250;2022-09-09T12:36:03;26.20;46.00
2202;DHT22;1107;48.654;9.250;2022-09-09T12:38:34;26.20;38.50
2202;DHT22;1107;48.654;9.250;2022-09-09T12:41:02;26.30;33.70
2202;DHT22;1107;48.654;9.250;2022-09-09T12:43:29;26.60;31.90
2202;DHT22;1107;48.654;9.250;2022-09-09T12:46:00;24.80;22.50
2202;DHT22;1107;48.654;9.250;2022-09-09T12:48:35;24.00;20.10
2202;DHT22;1107;48.654;9.250;2022-09-09T12:51:04;23.30;21.90
2202;DHT22;1107;48.654;9.250;2022-09-09T12:53:34;22.70;25.20
2202;DHT22;1107;48.654;9.250;2022-09-09T12:56:04;22.30;28.40
2202;DHT22;1107;48.654;9.250;2022-09-09T12:58:35;22.10;34.00
2202;DHT22;1107;48.654;9.250;2022-09-09T13:01:04;22.20;40.10
2202;DHT22;1107;48.654;9.250;2022-09-09T13:03:41;22.00;45.90
2202;DHT22;1107;48.654;9.250;2022-09-09T13:06:12;22.60;47.80
2202;DHT22;1107;48.654;9.250;2022-09-09T13:08:39;23.60;46.80
2202;DHT22;1107;48.654;9.250;2022-09-09T13:11:10;23.10;39.80
2202;DHT22;1107;48.654;9.250;2022-09-09T13:13:40;22.10;32.20
2202;DHT22;1107;48.654;9.250;2022-09-09T13:16:20;21.80;35.70
2202;DHT22;1107;48.654;9.250;2022-09-09T13:18:50;21.60;39.20
2202;DHT22;1107;48.654;9.250;2022-09-09T13:21:17;21.50;44.10
2202;DHT22;1107;48.654;9.250;2022-09-09T13:23:49;21.30;43.10
2202;DHT22;1107;48.654;9.250;2022-09-09T13:26:22;21.40;45.80
2202;DHT22;1107;48.654;9.250;2022-09-09T13:28:50;21.60;50.40
2202;DHT22;1107;48.654;9.250;2022-09-09T13:31:22;22.40;49.60
2202;DHT22;1107;48.654;9.250;2022-09-09T13:33:51;23.40;47.50
2202;DHT22;1107;48.654;9.250;2022-09-09T13:36:28;23.70;41.10
2202;DHT22;1107;48.654;9.250;2022-09-09T13:38:57;23.70;41.70
2202;DHT22;1107;48.654;9.250;2022-09-09T13:41:42;23.30;37.10
2202;DHT22;1107;48.654;9.250;2022-09-09T13:44:19;23.50;38.90
2202;DHT22;1107;48.654;9.250;2022-09-09T13:47:00;22.80;39.20
2202;DHT22;1107;48.654;9.250;2022-09-09T13:49:30;23.00;44.10
2202;DHT22;1107;48.654;9.250;2022-09-09T13:52:09;23.50;45.90
2202;DHT22;1107;48.654;9.250;2022-09-09T13:54:37;23.00;41.00
2202;DHT22;1107;48.654;9.250;2022-09-09T13:57:05;23.20;34.50
2202;DHT22;1107;48.654;9.250;2022-09-09T13:59:32;23.40;31.90
2202;DHT22;1107;48.654;9.250;2022-09-09T14:01:59;23.80;29.20
2202;DHT22;1107;48.654;9.250;2022-09-09T14:04:28;24.00;27.80
2202;DHT22;1107;48.654;9.250;2022-09-09T14:06:56;24.00;27.30
2202;DHT22;1107;48.654;9.250;2022-09-09T14:09:23;23.70;25.10
2202;DHT22;1107;48.654;9.250;2022-09-09T14:11:50;23.90;23.80
2202;DHT22;1107;48.654;9.250;2022-09-09T14:14:17;24.00;24.80
2202;DHT22;1107;48.654;9.250;2022-09-09T14:16:45;24.40;25.30
2202;DHT22;1107;48.654;9.250;2022-09-09T14:19:12;24.40;21.00
2202;DHT22;1107;48.654;9.250;2022-09-09T14:21:40;24.40;19.20
2202;DHT22;1107;48.654;9.250;2022-09-09T14:24:08;23.30;14.10
2202;DHT22;1107;48.654;9.250;2022-09-09T14:26:35;24.00;17.80
2202;DHT22;1107;48.654;9.250;2022-09-09T14:29:02;24.10;15.30
2202;DHT22;1107;48.654;9.250;2022-09-09T14:31:29;23.70;13.10
2202;DHT22;1107;48.654;9.250;2022-09-09T14:33:56;23.50;10.20
2202;DHT22;1107;48.654;9.250;2022-09-09T14:36:24;23.30;9.10
2202;DHT22;1107;48.654;9.250;2022-09-09T14:38:53;23.30;22.80
2202;DHT22;1107;48.654;9.250;2022-09-09T14:41:20;23.40;7.50
2202;DHT22;1107;48.654;9.250;2022-09-09T14:43:49;23.60;7.80
2202;DHT22;1107;48.654;9.250;2022-09-09T14:46:18;23.90;10.10
2202;DHT22;1107;48.654;9.250;2022-09-09T14:48:46;24.40;11.80
2202;DHT22;1107;48.654;9.250;2022-09-09T14:51:16;24.00;8.00
2202;DHT22;1107;48.654;9.250;2022-09-09T14:53:43;23.50;4.80
2202;DHT22;1107;48.654;9.250;2022-09-09T14:56:13;23.90;7.60
2202;DHT22;1107;48.654;9.250;2022-09-09T14:58:41;23.80;6.60
2202;DHT22;1107;48.654;9.250;2022-09-09T15:01:11;23.60;5.70
2202;DHT22;1107;48.654;9.250;2022-09-09T15:03:39;23.70;6.40
2202;DHT22;1107;48.654;9.250;2022-09-09T15:06:07;23.90;6.90
2202;DHT22;1107;48.654;9.250;2022-09-09T15:08:35;23.80;4.50
2202;DHT22;1107;48.654;9.250;2022-09-09T15:11:03;23.80;3.60
2202;DHT22;1107;48.654;9.250;2022-09-09T15:13:33;23.50;1.50
2202;DHT22;1107;48.654;9.250;2022-09-09T15:16:04;23.70;2.30
2202;DHT22;1107;48.654;9.250;2022-09-09T15:18:31;23.50;2.40
2202;DHT22;1107;48.654;9.250;2022-09-09T15:20:59;23.50;1.00
2202;DHT22;1107;48.654;9.250;2022-09-09T15:23:27;23.40;1.00
2202;DHT22;1107;48.654;9.250;2022-09-09T15:25:55;23.60;2.40
2202;DHT22;1107;48.654;9.250;2022-09-09T15:28:22;23.40;1.20
2202;DHT22;1107;48.654;9.250;2022-09-09T15:30:52;23.10;1.00
2202;DHT22;1107;48.654;9.250;2022-09-09T15:33:20;23.00;1.40
2202;DHT22;1107;48.654;9.250;2022-09-09T15:35:47;23.10;2.00
2202;DHT22;1107;48.654;9.250;2022-09-09T15:38:15;23.20;4.30
2202;DHT22;1107;48.654;9.250;2022-09-09T15:40:43;22.90;2.90
2202;DHT22;1107;48.654;9.250;2022-09-09T15:43:10;22.90;4.30
2202;DHT22;1107;48.654;9.250;2022-09-09T15:45:38;22.60;2.80
2202;DHT22;1107;48.654;9.250;2022-09-09T15:48:07;22.40;3.90
2202;DHT22;1107;48.654;9.250;2022-09-09T15:50:34;22.30;4.30
2202;DHT22;1107;48.654;9.250;2022-09-09T15:53:01;21.90;1.50
2202;DHT22;1107;48.654;9.250;2022-09-09T15:55:28;21.40;1.00
2202;DHT22;1107;48.654;9.250;2022-09-09T15:57:55;21.30;1.30
2202;DHT22;1107;48.654;9.250;2022-09-09T16:00:23;21.20;1.70
2202;DHT22;1107;48.654;9.250;2022-09-09T16:02:50;20.90;1.70
2202;DHT22;1107;48.654;9.250;2022-09-09T16:05:20;20.80;3.50
2202;DHT22;1107;48.654;9.250;2022-09-09T16:07:47;20.70;5.20
2202;DHT22;1107;48.654;9.250;2022-09-09T16:10:14;20.60;5.60
2202;DHT22;1107;48.654;9.250;2022-09-09T16:12:41;20.50;6.50
2202;DHT22;1107;48.654;9.250;2022-09-09T16:15:08;20.50;8.80
2202;DHT22;1107;48.654;9.250;2022-09-09T16:17:35;20.40;11.70
2202;DHT22;1107;48.654;9.250;2022-09-09T16:20:04;20.50;13.90
2202;DHT22;1107;48.654;9.250;2022-09-09T16:22:36;20.40;12.70
2202;DHT22;1107;48.654;9.250;2022-09-09T16:25:04;20.30;13.90
2202;DHT22;1107;48.654;9.250;2022-09-09T16:27:31;20.30;14.30
2202;DHT22;1107;48.654;9.250;2022-09-09T16:29:59;20.30;16.40
2202;DHT22;1107;48.654;9.250;2022-09-09T16:32:26;20.30;17.40
2202;DHT22;1107;48.654;9.250;2022-09-09T16:34:53;20.40;19.10
2202;DHT22;1107;48.654;9.250;2022-09-09T16:37:20;20.30;19.20
2202;DHT22;1107;48.654;9.250;2022-09-09T16:39:49;20.30;20.20
2202;DHT22;1107;48.654;9.250;2022-09-09T16:42:16;20.20;21.10
2202;DHT22;1107;48.654;9.250;2022-09-09T16:44:43;20.20;22.60